Time;durP1;ratioP1;P1;durP2;ratioP2;P2;SDS_P1;SDS_P2;PMS_P1;PMS_P2;Temp;Humidity;BMP_temperature;BMP_pressure;BME280_temperature;BME280_humidity;BME280_pressure;Samples;Min_cycle;Max_cycle;Signal;HPM_P1;HPM_P2
2023/05/06 00:01:09;;;;;;;11.02;7.85;;;14.00;99.90;;;;;;6264451;22;20052;-95
2023/05/06 00:03:35;;;;;;;10.60;7.97;;;14.00;99.90;;;;;;6264974;22;20007;-95
2023/05/06 00:06:05;;;;;;;12.88;7.82;;;14.00;99.90;;;;;;6289938;22;20041;-94
2023/05/06 00:08:30;;;;;;;11.05;7.63;;;14.00;99.90;;;;;;6266748;22;20007;-93
2023/05/06 00:10:56;;;;;;;13.00;9.98;;;14.00;99.90;;;;;;6315337;22;20102;-95
2023/05/06 00:13:22;;;;;;;12.32;8.63;;;14.00;99.90;;;;;;6264572;22;20038;-95
2023/05/06 00:15:47;;;;;;;11.70;9.10;;;14.00;99.90;;;;;;6289890;22;20003;-94
2023/05/06 00:18:14;;;;;;;11.18;8.85;;;14.00;99.90;;;;;;6289372;22;20059;-91
2023/05/06 00:20:40;;;;;;;11.10;9.07;;;14.00;99.90;;;;;;6315121;22;20006;-92
2023/05/06 00:23:06;;;;;;;12.00;9.05;;;14.00;99.90;;;;;;6264700;22;20010;-92
2023/05/06 00:25:32;;;;;;;11.70;9.65;;;14.00;99.90;;;;;;6289641;22;20434;-93
2023/05/06 00:27:57;;;;;;;13.90;9.70;;;14.00;99.90;;;;;;6289489;22;20338;-93
2023/05/06 00:30:24;;;;;;;14.52;9.68;;;14.00;99.90;;;;;;6264262;22;20003;-93
2023/05/06 00:32:50;;;;;;;14.82;10.50;;;14.00;99.90;;;;;;6289405;22;20007;-92
2023/05/06 00:35:16;;;;;;;13.07;9.43;;;14.00;99.90;;;;;;6315540;22;19995;-94
2023/05/06 00:37:45;;;;;;;11.05;9.55;;;14.00;99.90;;;;;;6263973;22;20010;-91
2023/05/06 00:40:11;;;;;;;14.40;9.65;;;14.00;99.90;;;;;;6315060;22;20005;-92
2023/05/06 00:42:37;;;;;;;12.40;9.45;;;14.00;99.90;;;;;;6263873;22;20007;-92
2023/05/06 00:45:03;;;;;;;10.73;8.88;;;14.00;99.90;;;;;;6315233;22;20102;-92
2023/05/06 00:47:29;;;;;;;13.15;9.32;;;13.90;99.90;;;;;;6263473;22;20007;-91
2023/05/06 00:49:55;;;;;;;11.68;9.25;;;13.90;99.90;;;;;;6289005;22;20456;-92
2023/05/06 00:52:21;;;;;;;11.10;9.55;;;13.90;99.90;;;;;;6289152;22;20007;-92
2023/05/06 00:54:48;;;;;;;11.95;9.85;;;13.90;99.90;;;;;;6288626;22;20045;-92
2023/05/06 00:57:14;;;;;;;12.88;10.57;;;13.90;99.90;;;;;;6263456;22;20003;-92
2023/05/06 00:59:41;;;;;;;13.85;10.13;;;13.90;99.90;;;;;;6289197;22;20418;-92
2023/05/06 01:02:08;;;;;;;15.98;11.02;;;13.90;99.90;;;;;;6289233;22;20017;-94
2023/05/06 01:04:34;;;;;;;16.88;13.43;;;13.90;99.90;;;;;;6289741;22;20010;-94
2023/05/06 01:07:28;;;;;;;16.85;11.95;;;13.90;99.90;;;;;;6289887;22;20007;-94
2023/05/06 01:10:23;;;;;;;17.80;12.60;;;13.90;99.90;;;;;;6315205;22;20003;-93
2023/05/06 01:12:57;;;;;;;18.13;12.02;;;14.00;99.90;;;;;;6314963;22;20007;-93
2023/05/06 01:15:40;;;;;;;17.08;12.48;;;14.00;99.90;;;;;;6315735;22;20365;-94
2023/05/06 01:18:14;;;;;;;16.70;13.23;;;14.00;99.90;;;;;;6315387;22;20006;-93
2023/05/06 01:20:42;;;;;;;17.75;13.50;;;13.90;99.90;;;;;;6292575;22;20018;-92
2023/05/06 01:23:12;;;;;;;18.48;13.93;;;14.00;99.90;;;;;;6257341;22;20061;-92
2023/05/06 01:25:39;;;;;;;18.80;15.27;;;14.00;99.90;;;;;;6256699;22;20000;-94
2023/05/06 01:28:09;;;;;;;18.92;15.05;;;14.00;99.90;;;;;;6254723;22;20085;-92
2023/05/06 01:30:47;;;;;;;16.73;13.73;;;14.00;99.90;;;;;;6278333;22;20407;-91
2023/05/06 01:33:30;;;;;;;19.02;15.07;;;14.00;99.90;;;;;;6277886;22;20010;-91
2023/05/06 01:36:20;;;;;;;21.85;15.15;;;14.00;99.90;;;;;;6277927;22;20303;-92
2023/05/06 01:38:49;;;;;;;20.17;15.40;;;13.90;99.90;;;;;;6277719;22;20027;-92
2023/05/06 01:41:16;;;;;;;26.73;15.18;;;14.00;99.90;;;;;;6277914;22;20014;-92
2023/05/06 01:43:44;;;;;;;20.38;15.60;;;14.00;99.90;;;;;;6251933;22;20334;-92
2023/05/06 01:46:19;;;;;;;20.00;16.15;;;14.00;99.90;;;;;;6252291;22;20014;-92
2023/05/06 01:48:48;;;;;;;24.38;17.35;;;14.00;99.90;;;;;;6277677;22;20014;-93
2023/05/06 01:51:13;;;;;;;23.02;17.45;;;14.00;99.90;;;;;;6277772;22;20011;-93
2023/05/06 01:53:40;;;;;;;22.70;17.10;;;14.00;99.90;;;;;;6227676;22;20007;-94
2023/05/06 01:56:06;;;;;;;23.40;17.65;;;13.90;99.90;;;;;;6253484;22;20026;-94
2023/05/06 01:58:32;;;;;;;24.50;17.45;;;14.00;99.90;;;;;;6279583;22;20010;-93
2023/05/06 02:00:57;;;;;;;24.63;18.50;;;14.00;99.90;;;;;;6228087;22;20031;-94
2023/05/06 02:03:23;;;;;;;24.42;18.33;;;14.00;99.90;;;;;;6227768;22;20331;-93
2023/05/06 02:05:49;;;;;;;24.13;18.65;;;14.00;99.90;;;;;;6252385;22;20003;-93
2023/05/06 02:08:15;;;;;;;21.20;18.23;;;13.90;99.90;;;;;;6278896;22;20000;-94
2023/05/06 02:10:41;;;;;;;25.33;18.38;;;13.90;99.90;;;;;;6252999;22;20004;-91
2023/05/06 02:13:07;;;;;;;26.40;19.75;;;13.90;99.90;;;;;;6253566;22;20006;-92
2023/05/06 02:15:32;;;;;;;23.60;18.83;;;13.90;99.90;;;;;;6278711;22;19999;-91
2023/05/06 02:17:58;;;;;;;20.65;16.63;;;13.90;99.90;;;;;;6252871;22;20004;-94
2023/05/06 02:20:24;;;;;;;25.15;18.42;;;13.90;99.90;;;;;;6285821;22;20003;-93
2023/05/06 02:22:50;;;;;;;26.00;19.63;;;13.80;99.90;;;;;;6289298;22;20345;-93
2023/05/06 02:25:16;;;;;;;22.55;17.58;;;13.80;99.90;;;;;;6288783;22;20014;-92
2023/05/06 02:27:43;;;;;;;23.35;17.98;;;13.80;99.90;;;;;;6288251;22;20064;-95
2023/05/06 02:30:10;;;;;;;21.38;17.35;;;13.80;99.90;;;;;;6263320;22;20083;-94
2023/05/06 02:32:36;;;;;;;21.73;17.50;;;13.80;99.90;;;;;;6288032;22;20010;-93
2023/05/06 02:35:02;;;;;;;22.05;17.58;;;13.70;99.90;;;;;;6288020;22;20275;-93
2023/05/06 02:37:27;;;;;;;24.95;18.65;;;13.70;99.90;;;;;;6288994;22;20321;-94
2023/05/06 02:39:53;;;;;;;20.77;16.42;;;13.70;99.90;;;;;;6289320;22;20090;-93
2023/05/06 02:42:20;;;;;;;23.52;18.13;;;13.60;99.90;;;;;;6263251;22;20010;-92
2023/05/06 02:44:46;;;;;;;22.42;16.95;;;13.60;99.90;;;;;;6295956;22;20007;-92
2023/05/06 02:47:11;;;;;;;25.35;17.15;;;13.60;99.90;;;;;;6295224;22;20034;-93
2023/05/06 02:49:37;;;;;;;19.58;15.65;;;13.50;99.90;;;;;;6294213;22;20414;-91
2023/05/06 02:52:03;;;;;;;20.73;15.50;;;13.50;99.90;;;;;;6296639;22;20006;-91
2023/05/06 02:54:29;;;;;;;25.63;17.45;;;13.50;99.90;;;;;;6297245;22;20027;-92
2023/05/06 02:56:55;;;;;;;18.77;16.48;;;13.40;99.90;;;;;;6298409;22;19999;-93
2023/05/06 02:59:20;;;;;;;24.15;17.27;;;13.40;99.90;;;;;;6273330;22;19999;-93
2023/05/06 03:01:47;;;;;;;20.88;16.08;;;13.40;99.90;;;;;;6262911;22;20433;-93
2023/05/06 03:04:13;;;;;;;20.05;16.25;;;13.40;99.90;;;;;;6288180;22;20003;-93
2023/05/06 03:06:38;;;;;;;20.73;16.58;;;13.30;99.90;;;;;;6287741;22;20018;-92
2023/05/06 03:09:04;;;;;;;21.77;17.20;;;13.30;99.90;;;;;;6287918;22;20003;-93
2023/05/06 03:11:30;;;;;;;21.88;16.42;;;13.30;99.90;;;;;;6262360;22;20010;-94
2023/05/06 03:13:57;;;;;;;24.15;17.67;;;13.30;99.90;;;;;;6313384;22;19999;-92
2023/05/06 03:16:23;;;;;;;21.05;15.32;;;13.20;99.90;;;;;;6313494;22;20072;-92
2023/05/06 03:18:49;;;;;;;15.75;13.07;;;13.20;99.90;;;;;;6313186;22;20003;-92
2023/05/06 03:21:15;;;;;;;13.98;11.45;;;13.20;99.90;;;;;;6255214;22;20040;-93
2023/05/06 03:23:40;;;;;;;13.38;10.52;;;13.10;99.90;;;;;;6251918;22;20447;-92
2023/05/06 03:26:06;;;;;;;14.80;11.27;;;13.10;99.90;;;;;;6251414;22;20038;-93
2023/05/06 03:28:32;;;;;;;14.35;11.07;;;13.10;99.90;;;;;;6277151;22;20008;-93
2023/05/06 03:30:58;;;;;;;14.23;11.55;;;13.10;99.90;;;;;;6251465;22;20003;-93
2023/05/06 03:33:24;;;;;;;17.65;12.88;;;13.10;99.90;;;;;;6254829;22;20086;-93
2023/05/06 03:35:49;;;;;;;15.43;12.73;;;13.00;99.90;;;;;;6256568;22;20300;-94
2023/05/06 03:38:15;;;;;;;19.10;13.65;;;13.00;99.90;;;;;;6280340;22;20061;-91
2023/05/06 03:40:41;;;;;;;15.65;12.20;;;13.00;99.90;;;;;;6279293;22;20003;-93
2023/05/06 03:43:07;;;;;;;17.35;13.45;;;13.00;99.90;;;;;;6255526;22;20031;-92
2023/05/06 03:45:33;;;;;;;15.63;13.40;;;13.00;99.90;;;;;;6254244;22;20064;-93
2023/05/06 03:47:58;;;;;;;12.18;10.07;;;12.90;99.90;;;;;;6253776;22;20457;-93
2023/05/06 03:50:24;;;;;;;11.52;8.68;;;12.90;99.90;;;;;;6253786;22;20322;-92
2023/05/06 03:52:53;;;;;;;13.15;10.20;;;12.90;99.90;;;;;;6253556;22;20015;-92
2023/05/06 03:55:19;;;;;;;14.65;9.60;;;12.90;99.90;;;;;;6253241;22;20014;-93
2023/05/06 03:57:44;;;;;;;15.68;11.93;;;12.80;99.90;;;;;;6278966;22;19995;-93
2023/05/06 04:00:11;;;;;;;15.90;11.85;;;12.80;99.90;;;;;;6279258;22;20006;-93
2023/05/06 04:02:36;;;;;;;16.60;12.40;;;12.80;99.90;;;;;;6253690;22;20003;-93
2023/05/06 04:05:02;;;;;;;24.38;15.20;;;12.80;99.90;;;;;;6227842;22;20015;-93
2023/05/06 04:07:29;;;;;;;21.25;15.35;;;12.80;99.90;;;;;;6230485;22;20004;-93
2023/05/06 04:09:54;;;;;;;33.88;17.50;;;12.70;99.90;;;;;;6230697;22;20007;-94
2023/05/06 04:12:20;;;;;;;25.65;16.63;;;12.80;99.90;;;;;;6230304;22;20484;-91
2023/05/06 04:14:46;;;;;;;38.08;17.38;;;12.70;99.90;;;;;;6254612;22;20031;-93
2023/05/06 04:17:12;;;;;;;33.25;16.63;;;12.70;99.90;;;;;;6280197;22;20059;-93
2023/05/06 04:19:38;;;;;;;29.67;17.70;;;12.70;99.90;;;;;;6228600;22;20079;-93
2023/05/06 04:22:03;;;;;;;22.83;16.65;;;12.70;99.90;;;;;;6228693;22;20035;-94
2023/05/06 04:24:30;;;;;;;17.83;15.00;;;12.70;99.90;;;;;;6254016;22;20307;-93
2023/05/06 04:26:56;;;;;;;16.88;14.40;;;12.70;99.90;;;;;;6278440;22;20011;-94
2023/05/06 04:29:22;;;;;;;16.70;14.65;;;12.70;99.90;;;;;;6278593;22;20018;-93
2023/05/06 04:31:47;;;;;;;19.10;14.40;;;12.70;99.90;;;;;;6253136;22;20012;-94
2023/05/06 04:34:14;;;;;;;17.13;15.02;;;12.70;99.90;;;;;;6258248;22;20000;-96
2023/05/06 04:36:39;;;;;;;31.65;16.83;;;12.70;99.90;;;;;;6266686;22;20003;-96
2023/05/06 04:39:07;;;;;;;23.30;14.77;;;12.70;99.90;;;;;;6264429;22;20014;-95
2023/05/06 04:41:33;;;;;;;35.25;15.27;;;12.70;99.90;;;;;;6255642;22;20393;-96
2023/05/06 04:44:00;;;;;;;49.78;14.70;;;12.70;99.90;;;;;;6278869;22;20003;-96
2023/05/06 04:46:26;;;;;;;22.33;13.63;;;12.70;99.90;;;;;;6254368;22;20008;-96
2023/05/06 04:48:51;;;;;;;44.30;15.38;;;12.70;99.90;;;;;;6254892;22;20004;-96
2023/05/06 04:51:17;;;;;;;73.65;15.27;;;12.70;99.90;;;;;;6279042;22;20010;-96
2023/05/06 04:53:43;;;;;;;62.70;13.75;;;12.60;99.90;;;;;;6280665;22;20083;-95
2023/05/06 04:56:09;;;;;;;45.22;12.98;;;12.60;99.90;;;;;;6257370;22;20384;-93
2023/05/06 04:58:34;;;;;;;29.33;13.93;;;12.60;99.90;;;;;;6269285;22;20006;-92
2023/05/06 05:01:03;;;;;;;25.05;13.65;;;12.60;99.90;;;;;;6271457;22;20000;-92
2023/05/06 05:03:29;;;;;;;30.85;13.63;;;12.60;99.90;;;;;;6270664;22;20004;-93
2023/05/06 05:05:55;;;;;;;39.85;13.15;;;12.60;99.90;;;;;;6266938;22;20018;-91
2023/05/06 05:08:21;;;;;;;14.82;13.23;;;12.60;99.90;;;;;;6234962;22;20322;-92
2023/05/06 05:10:46;;;;;;;69.50;15.73;;;12.60;99.90;;;;;;6259183;22;20082;-92
2023/05/06 05:13:13;;;;;;;17.45;13.00;;;12.60;99.90;;;;;;6256265;22;20008;-93
2023/05/06 05:15:41;;;;;;;19.42;13.45;;;12.50;99.90;;;;;;6280111;22;20423;-92
2023/05/06 05:18:07;;;;;;;15.82;14.00;;;12.50;99.90;;;;;;6254952;22;20498;-92
2023/05/06 05:20:33;;;;;;;16.23;14.52;;;12.60;99.90;;;;;;6255715;22;20015;-91
2023/05/06 05:26:30;;;;;;;19.17;15.80;;;12.60;99.90;;;;;;6280492;22;20079;-93
2023/05/06 05:28:56;;;;;;;19.10;16.52;;;12.60;99.90;;;;;;6254249;22;20007;-95
2023/05/06 05:31:22;;;;;;;17.48;15.55;;;12.60;99.90;;;;;;6240452;22;20076;-94
2023/05/06 05:33:48;;;;;;;18.05;15.43;;;12.60;99.90;;;;;;6276860;22;19994;-94
2023/05/06 05:36:20;;;;;;;23.92;16.00;;;12.60;99.90;;;;;;6276146;22;20004;-95
2023/05/06 05:38:46;;;;;;;18.80;16.33;;;12.70;99.90;;;;;;6273610;22;20051;-95
2023/05/06 05:41:12;;;;;;;20.63;16.70;;;12.70;99.90;;;;;;6275371;22;19984;-95
2023/05/06 05:43:38;;;;;;;20.63;17.25;;;12.70;99.90;;;;;;6272547;22;20001;-94
2023/05/06 05:46:04;;;;;;;21.17;16.95;;;12.70;99.90;;;;;;6255890;22;20004;-93
2023/05/06 05:48:31;;;;;;;19.13;16.13;;;12.80;99.90;;;;;;6278927;22;20010;-92
2023/05/06 05:50:57;;;;;;;20.00;17.33;;;12.80;99.90;;;;;;6228098;22;20014;-93
2023/05/06 05:53:23;;;;;;;25.27;19.33;;;12.80;99.90;;;;;;6279612;22;20031;-94
2023/05/06 05:55:49;;;;;;;22.58;17.67;;;12.80;99.90;;;;;;6279409;22;20011;-94
2023/05/06 05:58:15;;;;;;;23.77;17.77;;;12.80;99.90;;;;;;6253618;22;20000;-94
2023/05/06 06:00:40;;;;;;;23.17;18.98;;;12.90;99.90;;;;;;6278626;22;19996;-93
2023/05/06 06:03:06;;;;;;;22.63;18.02;;;12.90;99.90;;;;;;6253514;22;20087;-93
2023/05/06 06:05:32;;;;;;;23.60;19.08;;;12.90;99.90;;;;;;6252106;22;20004;-92
2023/05/06 06:08:01;;;;;;;25.40;20.50;;;12.90;99.90;;;;;;6251987;22;20057;-94
2023/05/06 06:10:27;;;;;;;21.90;18.75;;;13.00;99.90;;;;;;6277701;22;20011;-92
2023/05/06 06:12:52;;;;;;;23.95;19.73;;;13.00;99.90;;;;;;6277513;22;20004;-93
2023/05/06 06:15:38;;;;;;;23.33;19.45;;;13.10;99.90;;;;;;6252276;22;19999;-92
2023/05/06 06:18:07;;;;;;;24.42;20.92;;;13.10;99.90;;;;;;6278011;22;20028;-92
2023/05/06 06:20:34;;;;;;;23.95;20.45;;;13.20;99.90;;;;;;6242109;22;20023;-93
2023/05/06 06:23:00;;;;;;;23.90;20.50;;;13.20;99.90;;;;;;6253244;22;20008;-94
2023/05/06 06:25:29;;;;;;;25.88;20.83;;;13.20;99.90;;;;;;6253701;22;20070;-94
2023/05/06 06:27:55;;;;;;;24.45;20.40;;;13.30;99.90;;;;;;6281811;22;20033;-92
2023/05/06 06:30:26;;;;;;;27.38;20.05;;;13.30;99.90;;;;;;6254514;22;20008;-93
2023/05/06 06:32:53;;;;;;;27.58;20.23;;;13.30;99.90;;;;;;6282379;22;20010;-93
2023/05/06 06:35:19;;;;;;;24.60;19.90;;;13.40;99.90;;;;;;6254931;22;20043;-93
2023/05/06 06:37:45;;;;;;;24.20;20.05;;;13.40;99.90;;;;;;6280937;22;20003;-94
2023/05/06 06:40:12;;;;;;;24.25;20.13;;;13.40;99.90;;;;;;6254252;22;20091;-96
2023/05/06 06:42:38;;;;;;;23.60;19.77;;;13.40;99.90;;;;;;6253679;22;20012;-94
2023/05/06 06:45:06;;;;;;;23.80;19.17;;;13.50;99.90;;;;;;6278027;22;20015;-94
2023/05/06 06:47:31;;;;;;;24.05;20.30;;;13.50;99.90;;;;;;6278224;22;20062;-95
2023/05/06 06:49:57;;;;;;;25.02;19.98;;;13.50;99.90;;;;;;6277854;22;20011;-94
2023/05/06 06:52:23;;;;;;;26.65;20.65;;;13.50;99.90;;;;;;6251985;22;20004;-94
2023/05/06 06:54:50;;;;;;;27.58;21.15;;;13.50;99.90;;;;;;6277656;22;20015;-94
2023/05/06 06:57:15;;;;;;;25.65;19.83;;;13.50;99.90;;;;;;6227113;22;20322;-93
2023/05/06 06:59:41;;;;;;;26.48;20.38;;;13.50;99.90;;;;;;6251928;22;20071;-94
2023/05/06 07:02:07;;;;;;;26.20;20.83;;;13.60;99.90;;;;;;6252344;22;20109;-94
2023/05/06 07:04:32;;;;;;;24.48;20.05;;;13.60;99.90;;;;;;6277601;22;20004;-94
2023/05/06 07:06:58;;;;;;;27.00;21.20;;;13.70;99.90;;;;;;6226512;22;20034;-95
2023/05/06 07:09:24;;;;;;;25.42;20.30;;;13.70;99.90;;;;;;6252443;22;20065;-93
2023/05/06 07:11:50;;;;;;;25.13;20.45;;;13.70;99.90;;;;;;6251469;22;20102;-93
2023/05/06 07:14:16;;;;;;;23.48;19.90;;;13.70;99.90;;;;;;6278670;22;20065;-93
2023/05/06 07:16:41;;;;;;;25.00;20.63;;;13.70;99.90;;;;;;6226664;22;20057;-93
2023/05/06 07:19:07;;;;;;;25.33;19.77;;;13.80;99.90;;;;;;6227435;22;20003;-93
2023/05/06 07:21:33;;;;;;;27.98;22.13;;;13.80;99.90;;;;;;6263569;22;20019;-93
2023/05/06 07:23:59;;;;;;;22.60;20.17;;;13.80;99.90;;;;;;6289717;22;20022;-93
2023/05/06 07:26:25;;;;;;;25.38;20.98;;;13.90;99.90;;;;;;6288412;22;20011;-93
2023/05/06 07:28:51;;;;;;;25.33;20.58;;;13.90;99.90;;;;;;6262584;22;20010;-93
2023/05/06 07:31:19;;;;;;;26.38;20.73;;;14.00;99.90;;;;;;6313901;22;19998;-93
2023/05/06 07:33:48;;;;;;;25.85;21.52;;;14.00;99.90;;;;;;6263265;22;20002;-92
2023/05/06 07:36:14;;;;;;;26.55;21.33;;;14.10;99.90;;;;;;6313926;22;19995;-94
2023/05/06 07:38:40;;;;;;;23.25;19.60;;;14.10;99.90;;;;;;6314705;22;20003;-96
2023/05/06 07:41:06;;;;;;;25.48;19.77;;;14.10;99.90;;;;;;6288256;22;20079;-95
2023/05/06 07:43:32;;;;;;;24.77;19.83;;;14.20;99.90;;;;;;6314431;22;20005;-91
2023/05/06 07:46:01;;;;;;;26.33;19.60;;;14.30;99.90;;;;;;6313749;22;20003;-92
2023/05/06 07:48:34;;;;;;;25.73;21.08;;;14.30;99.90;;;;;;6265104;22;20014;-92
2023/05/06 07:51:00;;;;;;;24.02;20.15;;;14.40;99.90;;;;;;6288643;22;20076;-92
2023/05/06 07:53:26;;;;;;;23.92;20.08;;;14.40;99.90;;;;;;6262864;22;20003;-90
2023/05/06 07:55:54;;;;;;;23.88;19.50;;;14.50;99.90;;;;;;6287379;22;20033;-91
2023/05/06 07:58:20;;;;;;;25.02;20.10;;;14.50;99.90;;;;;;6313304;22;20076;-91
2023/05/06 08:00:46;;;;;;;26.27;20.02;;;14.60;99.90;;;;;;6261746;22;19999;-93
2023/05/06 08:03:12;;;;;;;23.95;18.50;;;14.60;99.90;;;;;;6287235;22;20002;-92
2023/05/06 08:05:37;;;;;;;26.17;19.05;;;14.60;99.90;;;;;;6315369;22;19998;-92
2023/05/06 08:08:04;;;;;;;24.38;19.20;;;14.60;99.90;;;;;;6315177;22;20437;-93
2023/05/06 08:10:30;;;;;;;26.00;19.67;;;14.70;99.90;;;;;;6313403;22;20007;-93
2023/05/06 08:12:55;;;;;;;23.38;18.23;;;14.70;99.90;;;;;;6287748;22;20093;-94
2023/05/06 08:15:21;;;;;;;22.38;18.85;;;14.80;99.90;;;;;;6262859;22;20056;-94
2023/05/06 08:17:47;;;;;;;23.85;19.20;;;14.90;99.90;;;;;;6265350;22;20040;-92
2023/05/06 08:20:13;;;;;;;25.65;19.70;;;14.90;99.90;;;;;;6267224;22;20015;-91
2023/05/06 08:22:39;;;;;;;23.40;17.98;;;15.00;99.90;;;;;;6322987;22;19999;-91
2023/05/06 08:25:05;;;;;;;21.95;17.58;;;15.00;99.90;;;;;;6271329;22;20007;-90
2023/05/06 08:27:31;;;;;;;24.42;19.17;;;15.10;99.90;;;;;;6293464;22;20003;-90
2023/05/06 08:29:57;;;;;;;24.65;19.50;;;15.10;99.90;;;;;;6322546;22;20007;-91
2023/05/06 08:32:22;;;;;;;25.30;19.98;;;15.20;99.90;;;;;;6298771;22;20028;-92
2023/05/06 08:34:48;;;;;;;26.60;19.55;;;15.20;99.90;;;;;;6275636;22;20007;-92
2023/05/06 08:37:14;;;;;;;25.52;19.85;;;15.30;99.90;;;;;;6274755;22;20068;-91
2023/05/06 08:39:39;;;;;;;26.83;19.58;;;15.30;99.90;;;;;;6298768;22;20007;-91
2023/05/06 08:42:08;;;;;;;24.95;18.63;;;15.40;99.90;;;;;;6301154;22;20014;-90
2023/05/06 08:44:35;;;;;;;24.35;19.58;;;15.40;99.90;;;;;;6300437;22;20003;-91
2023/05/06 08:47:00;;;;;;;27.73;20.30;;;15.50;99.90;;;;;;6301377;22;20010;-91
2023/05/06 08:49:26;;;;;;;26.95;20.00;;;15.50;99.90;;;;;;6299182;22;20007;-93
2023/05/06 08:51:52;;;;;;;27.17;19.95;;;15.60;99.90;;;;;;6263291;22;20086;-92
2023/05/06 08:54:18;;;;;;;27.35;19.80;;;15.70;99.90;;;;;;6289134;22;20003;-92
2023/05/06 08:56:52;;;;;;;29.15;20.48;;;15.80;99.90;;;;;;6289349;22;19999;-92
2023/05/06 08:59:23;;;;;;;23.92;18.85;;;15.80;99.90;;;;;;6314757;22;20325;-91
2023/05/06 09:01:50;;;;;;;26.73;20.50;;;15.80;99.90;;;;;;6314587;22;20014;-91
2023/05/06 09:04:17;;;;;;;27.17;20.83;;;15.90;99.90;;;;;;6289322;22;20448;-91
2023/05/06 09:06:42;;;;;;;24.52;18.98;;;16.00;99.90;;;;;;6290527;22;20025;-91
2023/05/06 09:09:08;;;;;;;28.15;18.42;;;16.10;99.90;;;;;;6290313;22;20314;-92
2023/05/06 09:11:37;;;;;;;26.13;17.75;;;16.10;99.90;;;;;;6264436;22;20055;-92
2023/05/06 09:14:09;;;;;;;20.85;17.30;;;16.20;99.90;;;;;;6315954;22;19999;-92
2023/05/06 09:16:35;;;;;;;24.58;17.73;;;16.20;99.90;;;;;;6316320;22;19999;-92
2023/05/06 09:19:01;;;;;;;25.30;17.02;;;16.30;99.90;;;;;;6290271;22;20030;-93
2023/05/06 09:21:39;;;;;;;22.48;15.52;;;16.40;99.90;;;;;;6315620;22;20015;-91
2023/05/06 09:24:07;;;;;;;18.98;13.90;;;16.50;99.90;;;;;;6315182;22;20005;-91
2023/05/06 09:26:34;;;;;;;16.95;13.00;;;16.50;99.90;;;;;;6263648;22;20521;-93
2023/05/06 09:29:01;;;;;;;24.08;13.52;;;16.60;99.90;;;;;;6288836;22;20014;-92
2023/05/06 09:31:27;;;;;;;21.20;13.77;;;16.70;99.90;;;;;;6314403;22;20007;-92
2023/05/06 09:33:55;;;;;;;19.15;14.23;;;16.80;99.90;;;;;;6314872;22;19998;-92
2023/05/06 09:36:22;;;;;;;19.95;13.20;;;16.90;99.90;;;;;;6263607;22;20495;-91
2023/05/06 09:38:48;;;;;;;23.33;15.68;;;16.90;99.90;;;;;;6314902;22;20052;-87
2023/05/06 09:41:15;;;;;;;18.73;14.55;;;17.00;99.90;;;;;;6314327;22;19999;-87
2023/05/06 09:43:47;;;;;;;16.70;14.23;;;17.10;99.90;;;;;;6288616;22;20421;-91
2023/05/06 09:46:15;;;;;;;20.70;13.25;;;17.20;99.90;;;;;;6289794;22;20337;-91
2023/05/06 09:48:41;;;;;;;17.73;14.00;;;17.30;99.90;;;;;;6289515;22;20019;-90
2023/05/06 09:51:07;;;;;;;18.02;12.75;;;17.30;99.90;;;;;;6289458;22;20003;-91
2023/05/06 09:53:37;;;;;;;16.73;11.90;;;17.40;99.90;;;;;;6290488;22;20035;-91
2023/05/06 09:56:07;;;;;;;18.00;11.57;;;17.50;99.90;;;;;;6315439;22;20003;-92
2023/05/06 09:58:34;;;;;;;15.25;11.23;;;17.50;99.90;;;;;;6316000;22;19998;-91
2023/05/06 10:01:02;;;;;;;19.80;13.30;;;17.60;99.90;;;;;;6289305;22;20014;-89
2023/05/06 10:03:29;;;;;;;15.85;11.40;;;17.60;99.90;;;;;;6315400;22;20002;-92
2023/05/06 10:06:01;;;;;;;13.27;10.23;;;17.70;99.90;;;;;;6313238;22;19995;-88
2023/05/06 10:08:27;;;;;;;14.93;10.48;;;17.70;99.90;;;;;;6312888;22;20026;-88
2023/05/06 10:10:54;;;;;;;13.20;9.32;;;17.70;99.90;;;;;;6313363;22;19999;-89
2023/05/06 10:13:23;;;;;;;13.50;8.32;;;17.80;99.90;;;;;;6287598;22;20011;-86
2023/05/06 10:15:49;;;;;;;11.10;8.50;;;17.90;99.90;;;;;;6312848;22;20005;-88
2023/05/06 10:18:16;;;;;;;14.88;8.73;;;18.00;99.90;;;;;;6262029;22;20007;-88
2023/05/06 10:20:43;;;;;;;14.95;9.25;;;18.00;99.90;;;;;;6343260;22;20437;-93
2023/05/06 10:23:28;;;;;;;12.45;8.80;;;18.10;99.90;;;;;;6289990;22;20016;-92
2023/05/06 10:26:05;;;;;;;15.15;9.82;;;18.20;99.90;;;;;;6314915;22;20010;-92
2023/05/06 10:28:33;;;;;;;12.73;8.73;;;18.20;99.90;;;;;;6316498;22;20010;-93
2023/05/06 10:30:59;;;;;;;12.48;7.85;;;18.30;99.90;;;;;;6313761;22;20371;-94
2023/05/06 10:33:26;;;;;;;10.40;8.00;;;18.40;99.90;;;;;;6288542;22;20079;-89
2023/05/06 10:36:21;;;;;;;10.60;7.65;;;18.50;99.90;;;;;;6312511;22;20009;-88
2023/05/06 10:38:53;;;;;;;11.80;7.55;;;18.50;99.90;;;;;;6312934;22;20002;-88
2023/05/06 10:41:21;;;;;;;11.68;7.90;;;18.60;99.90;;;;;;6313956;22;20007;-88
2023/05/06 10:43:48;;;;;;;9.75;7.28;;;18.60;99.90;;;;;;6312542;22;19999;-87
2023/05/06 10:46:17;;;;;;;15.02;7.53;;;18.70;99.90;;;;;;6313220;22;20010;-90
2023/05/06 10:49:05;;;;;;;9.82;6.32;;;18.80;99.90;;;;;;6314192;22;20009;-90
2023/05/06 10:51:35;;;;;;;10.93;6.45;;;18.80;99.90;;;;;;6313993;22;20003;-92
2023/05/06 10:54:05;;;;;;;9.97;5.90;;;18.90;99.90;;;;;;6289200;22;20083;-91
2023/05/06 10:56:57;;;;;;;10.18;6.15;;;19.00;99.90;;;;;;6314403;22;20073;-91
2023/05/06 10:59:30;;;;;;;9.07;6.00;;;19.10;99.90;;;;;;6313604;22;20317;-93
2023/05/06 11:02:07;;;;;;;9.50;6.00;;;19.10;99.90;;;;;;6289193;22;20067;-92
2023/05/06 11:04:33;;;;;;;11.40;6.82;;;19.20;99.90;;;;;;6313387;22;20003;-93
2023/05/06 11:07:10;;;;;;;10.65;6.65;;;19.20;99.90;;;;;;6314351;22;20002;-93
2023/05/06 11:09:58;;;;;;;9.35;6.20;;;19.20;99.90;;;;;;6313588;22;20322;-93
2023/05/06 11:12:45;;;;;;;8.77;6.00;;;19.20;99.90;;;;;;6313747;22;19998;-94
2023/05/06 11:15:35;;;;;;;10.02;5.68;;;19.20;99.90;;;;;;6313658;22;20441;-92
2023/05/06 11:18:24;;;;;;;9.85;6.18;;;19.30;99.90;;;;;;6314783;22;19999;-92
2023/05/06 11:20:50;;;;;;;10.98;6.28;;;19.40;99.90;;;;;;6312895;22;20025;-92
2023/05/06 11:23:19;;;;;;;10.40;6.07;;;19.40;99.90;;;;;;6314724;22;20003;-94
2023/05/06 11:36:20;;;;;;;6.32;4.55;;;19.60;99.90;;;;;;6341224;22;20010;-96
2023/05/06 11:42:08;;;;;;;7.88;5.35;;;19.80;99.90;;;;;;6200408;22;20052;-93
2023/05/06 11:47:52;;;;;;;6.53;4.00;;;19.90;99.90;;;;;;6351094;22;20017;-94
2023/05/06 11:50:21;;;;;;;8.77;4.45;;;20.00;99.90;;;;;;6300262;22;20052;-93
2023/05/06 11:52:54;;;;;;;6.32;4.03;;;20.10;99.90;;;;;;6322225;22;19999;-92
2023/05/06 12:02:17;;;;;;;7.28;3.83;;;20.30;99.90;;;;;;6194303;22;20083;-92
2023/05/06 12:11:26;;;;;;;6.68;3.35;;;20.50;99.90;;;;;;6362431;22;20005;-94
2023/05/06 12:13:55;;;;;;;6.18;2.90;;;20.60;99.90;;;;;;6327753;22;19999;-95
2023/05/06 12:16:28;;;;;;;6.32;2.90;;;20.60;99.90;;;;;;6320718;22;20406;-94
2023/05/06 12:18:54;;;;;;;5.93;2.72;;;20.70;99.90;;;;;;6320396;22;19994;-94
2023/05/06 12:21:22;;;;;;;7.55;3.28;;;20.70;99.90;;;;;;6294386;22;20429;-94
2023/05/06 12:23:59;;;;;;;8.02;3.78;;;20.80;99.90;;;;;;6319107;22;20009;-93
2023/05/06 12:26:26;;;;;;;6.68;3.00;;;20.90;99.90;;;;;;6319709;22;19998;-96
2023/05/06 12:29:14;;;;;;;7.57;3.05;;;20.90;99.90;;;;;;6291735;22;20067;-96
2023/05/06 12:31:40;;;;;;;5.15;2.65;;;21.00;99.90;;;;;;6313922;22;20011;-95
2023/05/06 12:34:06;;;;;;;6.88;2.70;;;21.10;99.90;;;;;;6323501;22;20006;-92
2023/05/06 12:36:37;;;;;;;5.72;3.10;;;21.10;99.90;;;;;;6305869;22;20003;-94
2023/05/06 12:39:04;;;;;;;7.70;3.10;;;21.20;99.90;;;;;;6305405;22;20006;-94
2023/05/06 12:41:48;;;;;;;7.25;2.72;;;21.20;99.90;;;;;;6299783;22;20006;-93
2023/05/06 12:44:31;;;;;;;5.13;2.72;;;21.30;99.90;;;;;;6317386;22;20329;-92
2023/05/06 12:46:58;;;;;;;7.05;3.03;;;21.30;99.60;;;;;;6319294;22;20007;-93
2023/05/06 12:50:05;;;;;;;6.53;2.70;;;21.30;99.90;;;;;;6293208;22;20097;-96
2023/05/06 12:52:46;;;;;;;5.20;2.95;;;21.40;99.60;;;;;;6287236;22;20007;-96
2023/05/06 12:55:56;;;;;;;5.85;2.97;;;21.40;99.30;;;;;;6329738;22;19999;-94
2023/05/06 13:05:23;;;;;;;5.47;2.40;;;21.60;99.00;;;;;;6187681;23;20081;-93
2023/05/06 13:08:32;;;;;;;;;;;;;;;;;;;;;
2023/05/06 13:14:36;;;;;;;5.07;2.40;;;21.70;97.50;;;;;;6222329;22;20475;-92
2023/05/06 13:17:13;;;;;;;7.38;2.67;;;21.70;98.20;;;;;;6174953;23;20004;-95
2023/05/06 13:19:39;;;;;;;6.00;2.50;;;21.60;95.70;;;;;;6228884;22;20007;-94
2023/05/06 13:22:07;;;;;;;5.57;2.47;;;21.60;96.60;;;;;;6316601;22;20010;-94
2023/05/06 13:24:36;;;;;;;5.53;2.58;;;21.60;96.80;;;;;;6264012;22;20019;-94